Terminal Aerodrome Forecast
Issued by NWS

Home | Current Version | Previous Version | Text Only | Print | Product List | Glossary On
Versions: 1 2 3 4 5 6 7 8 9 10 11 12 13 14 15 16
000
FTUS41 KAKQ 272338
TAFPHF
TAF
KPHF 272338Z 2800/2824 VRB03KT P6SM BKN070
     FM280600 00000KT 5SM BR BKN100
     FM281000 00000KT 4SM BR BKN025
     FM281400 11004KT P6SM BKN030
     FM281600 13006KT 6SM SHRA BKN050=

USA.gov is the U.S. government's official web portal to all federal, state and local government web resources and services.